sensor_id;sensor_type;location;lat;lon;timestamp;P1;durP1;ratioP1;P2;durP2;ratioP2
30301;SDS011;17111;52.130;5.028;2023-08-21T00:00:36;5.53;;;1.80;;
30301;SDS011;17111;52.130;5.028;2023-08-21T00:03:03;3.90;;;1.90;;
30301;SDS011;17111;52.130;5.028;2023-08-21T00:05:30;3.50;;;1.75;;
30301;SDS011;17111;52.130;5.028;2023-08-21T00:07:56;3.13;;;2.00;;
30301;SDS011;17111;52.130;5.028;2023-08-21T00:10:23;4.80;;;1.70;;
30301;SDS011;17111;52.130;5.028;2023-08-21T00:12:50;4.70;;;1.70;;
30301;SDS011;17111;52.130;5.028;2023-08-21T00:15:16;3.05;;;1.70;;
30301;SDS011;17111;52.130;5.028;2023-08-21T00:17:43;4.70;;;1.80;;
30301;SDS011;17111;52.130;5.028;2023-08-21T00:20:10;4.85;;;1.98;;
30301;SDS011;17111;52.130;5.028;2023-08-21T00:22:37;4.53;;;1.50;;
30301;SDS011;17111;52.130;5.028;2023-08-21T00:25:04;2.97;;;1.65;;
30301;SDS011;17111;52.130;5.028;2023-08-21T00:27:31;5.53;;;2.05;;
30301;SDS011;17111;52.130;5.028;2023-08-21T00:29:58;3.88;;;1.70;;
30301;SDS011;17111;52.130;5.028;2023-08-21T00:32:27;2.10;;;1.50;;
30301;SDS011;17111;52.130;5.028;2023-08-21T00:34:53;3.20;;;1.90;;
30301;SDS011;17111;52.130;5.028;2023-08-21T00:37:20;3.25;;;1.45;;
30301;SDS011;17111;52.130;5.028;2023-08-21T00:39:47;2.50;;;1.70;;
30301;SDS011;17111;52.130;5.028;2023-08-21T00:42:13;2.22;;;1.40;;
30301;SDS011;17111;52.130;5.028;2023-08-21T00:44:40;4.30;;;1.85;;
30301;SDS011;17111;52.130;5.028;2023-08-21T00:47:06;4.72;;;1.50;;
30301;SDS011;17111;52.130;5.028;2023-08-21T00:49:34;3.58;;;1.50;;
30301;SDS011;17111;52.130;5.028;2023-08-21T00:52:00;2.95;;;1.58;;
30301;SDS011;17111;52.130;5.028;2023-08-21T00:54:27;4.05;;;1.75;;
30301;SDS011;17111;52.130;5.028;2023-08-21T00:56:54;2.67;;;1.58;;
30301;SDS011;17111;52.130;5.028;2023-08-21T00:59:21;4.68;;;1.60;;
30301;SDS011;17111;52.130;5.028;2023-08-21T01:01:48;2.20;;;1.30;;
30301;SDS011;17111;52.130;5.028;2023-08-21T01:04:15;2.33;;;1.38;;
30301;SDS011;17111;52.130;5.028;2023-08-21T01:06:42;5.30;;;1.50;;
30301;SDS011;17111;52.130;5.028;2023-08-21T01:09:10;3.63;;;1.42;;
30301;SDS011;17111;52.130;5.028;2023-08-21T01:11:50;3.83;;;1.48;;
30301;SDS011;17111;52.130;5.028;2023-08-21T01:15:09;3.88;;;1.42;;
30301;SDS011;17111;52.130;5.028;2023-08-21T01:17:21;2.10;;;1.15;;
30301;SDS011;17111;52.130;5.028;2023-08-21T01:19:50;3.15;;;1.48;;
30301;SDS011;17111;52.130;5.028;2023-08-21T01:22:18;2.22;;;1.23;;
30301;SDS011;17111;52.130;5.028;2023-08-21T01:24:44;3.65;;;1.50;;
30301;SDS011;17111;52.130;5.028;2023-08-21T01:27:12;3.55;;;1.63;;
30301;SDS011;17111;52.130;5.028;2023-08-21T01:29:40;4.00;;;1.95;;
30301;SDS011;17111;52.130;5.028;2023-08-21T01:34:47;4.75;;;1.30;;
30301;SDS011;17111;52.130;5.028;2023-08-21T01:37:16;3.50;;;1.25;;
30301;SDS011;17111;52.130;5.028;2023-08-21T01:39:43;4.70;;;1.30;;
30301;SDS011;17111;52.130;5.028;2023-08-21T01:42:10;2.45;;;1.17;;
30301;SDS011;17111;52.130;5.028;2023-08-21T01:44:37;2.97;;;1.40;;
30301;SDS011;17111;52.130;5.028;2023-08-21T01:47:03;3.22;;;1.45;;
30301;SDS011;17111;52.130;5.028;2023-08-21T01:49:30;2.50;;;1.50;;
30301;SDS011;17111;52.130;5.028;2023-08-21T01:51:57;2.42;;;0.98;;
30301;SDS011;17111;52.130;5.028;2023-08-21T01:54:23;2.83;;;1.10;;
30301;SDS011;17111;52.130;5.028;2023-08-21T01:56:50;2.70;;;1.40;;
30301;SDS011;17111;52.130;5.028;2023-08-21T01:59:17;3.05;;;1.27;;
30301;SDS011;17111;52.130;5.028;2023-08-21T02:01:43;3.20;;;1.70;;
30301;SDS011;17111;52.130;5.028;2023-08-21T02:04:11;3.53;;;1.73;;
30301;SDS011;17111;52.130;5.028;2023-08-21T02:06:38;3.60;;;1.40;;
30301;SDS011;17111;52.130;5.028;2023-08-21T02:09:04;2.75;;;1.17;;
30301;SDS011;17111;52.130;5.028;2023-08-21T02:11:31;2.53;;;1.38;;
30301;SDS011;17111;52.130;5.028;2023-08-21T02:13:58;3.10;;;1.55;;
30301;SDS011;17111;52.130;5.028;2023-08-21T02:16:25;3.95;;;1.23;;
30301;SDS011;17111;52.130;5.028;2023-08-21T02:18:51;3.25;;;1.30;;
30301;SDS011;17111;52.130;5.028;2023-08-21T02:21:18;4.05;;;1.40;;
30301;SDS011;17111;52.130;5.028;2023-08-21T02:23:44;2.85;;;1.20;;
30301;SDS011;17111;52.130;5.028;2023-08-21T02:26:11;2.50;;;1.15;;
30301;SDS011;17111;52.130;5.028;2023-08-21T02:28:37;2.95;;;1.15;;
30301;SDS011;17111;52.130;5.028;2023-08-21T02:31:04;3.05;;;1.20;;
30301;SDS011;17111;52.130;5.028;2023-08-21T02:33:31;1.95;;;1.20;;
30301;SDS011;17111;52.130;5.028;2023-08-21T02:35:58;2.47;;;1.17;;
30301;SDS011;17111;52.130;5.028;2023-08-21T02:38:25;2.90;;;1.60;;
30301;SDS011;17111;52.130;5.028;2023-08-21T02:40:51;2.30;;;1.02;;
30301;SDS011;17111;52.130;5.028;2023-08-21T02:43:18;2.03;;;1.17;;
30301;SDS011;17111;52.130;5.028;2023-08-21T02:45:44;1.88;;;1.05;;
30301;SDS011;17111;52.130;5.028;2023-08-21T02:48:11;1.85;;;1.10;;
30301;SDS011;17111;52.130;5.028;2023-08-21T02:50:38;1.98;;;1.08;;
30301;SDS011;17111;52.130;5.028;2023-08-21T02:53:04;2.05;;;1.17;;
30301;SDS011;17111;52.130;5.028;2023-08-21T02:55:31;3.13;;;1.58;;
30301;SDS011;17111;52.130;5.028;2023-08-21T02:57:57;2.28;;;1.10;;
30301;SDS011;17111;52.130;5.028;2023-08-21T03:00:24;2.92;;;1.27;;
30301;SDS011;17111;52.130;5.028;2023-08-21T03:02:50;2.67;;;1.35;;
30301;SDS011;17111;52.130;5.028;2023-08-21T03:05:17;1.92;;;1.17;;
30301;SDS011;17111;52.130;5.028;2023-08-21T03:07:44;2.38;;;1.20;;
30301;SDS011;17111;52.130;5.028;2023-08-21T03:10:10;2.45;;;1.05;;
30301;SDS011;17111;52.130;5.028;2023-08-21T03:12:37;2.55;;;0.93;;
30301;SDS011;17111;52.130;5.028;2023-08-21T03:15:04;1.95;;;1.00;;
30301;SDS011;17111;52.130;5.028;2023-08-21T03:17:31;5.07;;;1.70;;
30301;SDS011;17111;52.130;5.028;2023-08-21T03:19:58;1.90;;;1.08;;
30301;SDS011;17111;52.130;5.028;2023-08-21T03:22:24;2.95;;;1.10;;
30301;SDS011;17111;52.130;5.028;2023-08-21T03:24:51;3.83;;;1.13;;
30301;SDS011;17111;52.130;5.028;2023-08-21T03:27:18;3.08;;;1.23;;
30301;SDS011;17111;52.130;5.028;2023-08-21T03:29:45;2.97;;;1.38;;
30301;SDS011;17111;52.130;5.028;2023-08-21T03:32:15;2.00;;;0.98;;
30301;SDS011;17111;52.130;5.028;2023-08-21T03:34:42;2.38;;;1.05;;
30301;SDS011;17111;52.130;5.028;2023-08-21T03:37:09;3.80;;;1.48;;
30301;SDS011;17111;52.130;5.028;2023-08-21T03:39:36;3.83;;;0.90;;
30301;SDS011;17111;52.130;5.028;2023-08-21T03:42:03;3.00;;;1.10;;
30301;SDS011;17111;52.130;5.028;2023-08-21T03:44:30;2.95;;;0.95;;
30301;SDS011;17111;52.130;5.028;2023-08-21T03:46:56;2.38;;;1.02;;
30301;SDS011;17111;52.130;5.028;2023-08-21T03:49:23;2.95;;;1.50;;
30301;SDS011;17111;52.130;5.028;2023-08-21T03:51:49;2.20;;;1.00;;
30301;SDS011;17111;52.130;5.028;2023-08-21T03:54:16;3.10;;;1.25;;
30301;SDS011;17111;52.130;5.028;2023-08-21T03:56:43;1.98;;;1.30;;
30301;SDS011;17111;52.130;5.028;2023-08-21T03:59:09;2.03;;;1.10;;
30301;SDS011;17111;52.130;5.028;2023-08-21T04:01:36;1.88;;;1.02;;
30301;SDS011;17111;52.130;5.028;2023-08-21T04:04:02;2.05;;;1.00;;
30301;SDS011;17111;52.130;5.028;2023-08-21T04:06:29;3.20;;;1.20;;
30301;SDS011;17111;52.130;5.028;2023-08-21T04:08:56;2.72;;;1.10;;
30301;SDS011;17111;52.130;5.028;2023-08-21T04:11:22;2.08;;;1.30;;
30301;SDS011;17111;52.130;5.028;2023-08-21T04:13:49;3.90;;;1.42;;
30301;SDS011;17111;52.130;5.028;2023-08-21T04:16:15;3.13;;;1.95;;
30301;SDS011;17111;52.130;5.028;2023-08-21T04:18:44;3.30;;;1.83;;
30301;SDS011;17111;52.130;5.028;2023-08-21T04:21:10;6.03;;;2.72;;
30301;SDS011;17111;52.130;5.028;2023-08-21T04:23:37;3.38;;;2.20;;
30301;SDS011;17111;52.130;5.028;2023-08-21T04:26:04;4.25;;;2.30;;
30301;SDS011;17111;52.130;5.028;2023-08-21T04:28:31;4.15;;;2.50;;
30301;SDS011;17111;52.130;5.028;2023-08-21T04:30:58;5.07;;;2.67;;
30301;SDS011;17111;52.130;5.028;2023-08-21T04:33:25;4.90;;;2.65;;
30301;SDS011;17111;52.130;5.028;2023-08-21T04:35:54;5.05;;;3.00;;
30301;SDS011;17111;52.130;5.028;2023-08-21T04:38:20;4.15;;;2.45;;
30301;SDS011;17111;52.130;5.028;2023-08-21T04:40:47;4.47;;;2.80;;
30301;SDS011;17111;52.130;5.028;2023-08-21T04:43:13;7.40;;;2.75;;
30301;SDS011;17111;52.130;5.028;2023-08-21T04:45:47;5.10;;;2.60;;
30301;SDS011;17111;52.130;5.028;2023-08-21T04:48:15;4.72;;;2.67;;
30301;SDS011;17111;52.130;5.028;2023-08-21T04:50:42;5.55;;;2.60;;
30301;SDS011;17111;52.130;5.028;2023-08-21T04:53:09;5.03;;;3.03;;
30301;SDS011;17111;52.130;5.028;2023-08-21T04:55:35;4.65;;;2.70;;
30301;SDS011;17111;52.130;5.028;2023-08-21T04:58:03;4.97;;;2.83;;
30301;SDS011;17111;52.130;5.028;2023-08-21T05:00:30;5.72;;;3.08;;
30301;SDS011;17111;52.130;5.028;2023-08-21T05:02:57;4.38;;;2.63;;
30301;SDS011;17111;52.130;5.028;2023-08-21T05:05:23;5.32;;;3.13;;
30301;SDS011;17111;52.130;5.028;2023-08-21T05:07:51;4.43;;;3.15;;
30301;SDS011;17111;52.130;5.028;2023-08-21T05:10:19;8.90;;;3.50;;
30301;SDS011;17111;52.130;5.028;2023-08-21T05:12:46;6.63;;;2.97;;
30301;SDS011;17111;52.130;5.028;2023-08-21T05:15:13;5.32;;;2.97;;
30301;SDS011;17111;52.130;5.028;2023-08-21T05:17:40;5.80;;;3.28;;
30301;SDS011;17111;52.130;5.028;2023-08-21T05:20:07;5.43;;;3.33;;
30301;SDS011;17111;52.130;5.028;2023-08-21T05:22:34;5.40;;;3.25;;
30301;SDS011;17111;52.130;5.028;2023-08-21T05:25:02;7.20;;;3.45;;
30301;SDS011;17111;52.130;5.028;2023-08-21T05:27:28;6.85;;;3.78;;
30301;SDS011;17111;52.130;5.028;2023-08-21T05:29:55;8.05;;;3.97;;
30301;SDS011;17111;52.130;5.028;2023-08-21T05:32:22;8.48;;;4.97;;
30301;SDS011;17111;52.130;5.028;2023-08-21T05:34:48;9.10;;;4.93;;
30301;SDS011;17111;52.130;5.028;2023-08-21T05:37:15;13.30;;;5.15;;
30301;SDS011;17111;52.130;5.028;2023-08-21T05:39:42;7.78;;;4.50;;
30301;SDS011;17111;52.130;5.028;2023-08-21T05:42:08;9.48;;;5.13;;
30301;SDS011;17111;52.130;5.028;2023-08-21T05:44:35;8.32;;;4.43;;
30301;SDS011;17111;52.130;5.028;2023-08-21T05:47:01;10.48;;;5.18;;
30301;SDS011;17111;52.130;5.028;2023-08-21T05:49:28;10.55;;;5.07;;
30301;SDS011;17111;52.130;5.028;2023-08-21T05:51:55;8.70;;;4.78;;
30301;SDS011;17111;52.130;5.028;2023-08-21T05:54:25;10.70;;;5.00;;
30301;SDS011;17111;52.130;5.028;2023-08-21T05:56:51;12.55;;;5.35;;
30301;SDS011;17111;52.130;5.028;2023-08-21T05:59:29;9.57;;;4.35;;
30301;SDS011;17111;52.130;5.028;2023-08-21T06:01:57;9.80;;;4.50;;
30301;SDS011;17111;52.130;5.028;2023-08-21T06:04:24;10.45;;;4.80;;
30301;SDS011;17111;52.130;5.028;2023-08-21T06:06:51;12.52;;;5.18;;
30301;SDS011;17111;52.130;5.028;2023-08-21T06:09:18;10.80;;;4.78;;
30301;SDS011;17111;52.130;5.028;2023-08-21T06:11:45;8.77;;;4.22;;
30301;SDS011;17111;52.130;5.028;2023-08-21T06:14:12;9.52;;;4.60;;
30301;SDS011;17111;52.130;5.028;2023-08-21T06:16:38;9.77;;;4.50;;
30301;SDS011;17111;52.130;5.028;2023-08-21T06:19:06;8.55;;;3.88;;
30301;SDS011;17111;52.130;5.028;2023-08-21T06:21:32;8.90;;;4.15;;
30301;SDS011;17111;52.130;5.028;2023-08-21T06:23:59;15.23;;;5.20;;
30301;SDS011;17111;52.130;5.028;2023-08-21T06:26:25;8.93;;;3.80;;
30301;SDS011;17111;52.130;5.028;2023-08-21T06:28:52;8.13;;;3.97;;
30301;SDS011;17111;52.130;5.028;2023-08-21T06:31:19;9.02;;;3.63;;
30301;SDS011;17111;52.130;5.028;2023-08-21T06:33:46;11.95;;;3.72;;
30301;SDS011;17111;52.130;5.028;2023-08-21T06:36:13;7.78;;;2.97;;
30301;SDS011;17111;52.130;5.028;2023-08-21T06:38:40;7.35;;;3.17;;
30301;SDS011;17111;52.130;5.028;2023-08-21T06:41:07;9.10;;;4.00;;
30301;SDS011;17111;52.130;5.028;2023-08-21T06:43:38;8.05;;;3.17;;
30301;SDS011;17111;52.130;5.028;2023-08-21T06:46:09;7.03;;;2.88;;
30301;SDS011;17111;52.130;5.028;2023-08-21T06:48:37;8.05;;;3.42;;
30301;SDS011;17111;52.130;5.028;2023-08-21T06:51:09;8.73;;;3.10;;
30301;SDS011;17111;52.130;5.028;2023-08-21T06:53:37;7.38;;;2.65;;
30301;SDS011;17111;52.130;5.028;2023-08-21T06:56:03;8.82;;;3.08;;
30301;SDS011;17111;52.130;5.028;2023-08-21T06:58:30;8.10;;;2.72;;
30301;SDS011;17111;52.130;5.028;2023-08-21T07:00:57;9.38;;;3.42;;
30301;SDS011;17111;52.130;5.028;2023-08-21T07:03:24;9.15;;;2.40;;
30301;SDS011;17111;52.130;5.028;2023-08-21T07:05:54;12.20;;;2.45;;
30301;SDS011;17111;52.130;5.028;2023-08-21T07:08:24;7.97;;;2.78;;
30301;SDS011;17111;52.130;5.028;2023-08-21T07:10:51;7.78;;;2.90;;
30301;SDS011;17111;52.130;5.028;2023-08-21T07:13:18;5.50;;;1.98;;
30301;SDS011;17111;52.130;5.028;2023-08-21T07:15:46;6.13;;;2.08;;
30301;SDS011;17111;52.130;5.028;2023-08-21T07:18:13;7.10;;;2.45;;
30301;SDS011;17111;52.130;5.028;2023-08-21T07:20:40;10.13;;;2.33;;
30301;SDS011;17111;52.130;5.028;2023-08-21T07:23:07;8.20;;;2.00;;
30301;SDS011;17111;52.130;5.028;2023-08-21T07:25:33;5.47;;;2.33;;
30301;SDS011;17111;52.130;5.028;2023-08-21T07:28:00;7.40;;;2.33;;
30301;SDS011;17111;52.130;5.028;2023-08-21T07:30:26;7.10;;;2.17;;
30301;SDS011;17111;52.130;5.028;2023-08-21T07:32:53;6.97;;;1.77;;
30301;SDS011;17111;52.130;5.028;2023-08-21T07:35:20;5.47;;;1.80;;
30301;SDS011;17111;52.130;5.028;2023-08-21T07:37:47;5.28;;;1.65;;
30301;SDS011;17111;52.130;5.028;2023-08-21T07:40:13;5.15;;;1.80;;
30301;SDS011;17111;52.130;5.028;2023-08-21T07:42:40;6.30;;;2.03;;
30301;SDS011;17111;52.130;5.028;2023-08-21T07:45:07;5.25;;;1.80;;
30301;SDS011;17111;52.130;5.028;2023-08-21T07:47:34;5.47;;;1.42;;
30301;SDS011;17111;52.130;5.028;2023-08-21T07:50:03;6.70;;;1.60;;
30301;SDS011;17111;52.130;5.028;2023-08-21T07:52:30;4.30;;;1.55;;
30301;SDS011;17111;52.130;5.028;2023-08-21T07:54:57;4.65;;;2.15;;
30301;SDS011;17111;52.130;5.028;2023-08-21T07:57:25;5.57;;;1.55;;
30301;SDS011;17111;52.130;5.028;2023-08-21T07:59:52;6.10;;;1.38;;
30301;SDS011;17111;52.130;5.028;2023-08-21T08:02:21;4.38;;;1.42;;
30301;SDS011;17111;52.130;5.028;2023-08-21T08:04:49;4.97;;;1.80;;
30301;SDS011;17111;52.130;5.028;2023-08-21T08:07:15;6.97;;;1.38;;
30301;SDS011;17111;52.130;5.028;2023-08-21T08:09:42;6.05;;;1.90;;
30301;SDS011;17111;52.130;5.028;2023-08-21T08:12:09;3.90;;;1.30;;
30301;SDS011;17111;52.130;5.028;2023-08-21T08:14:36;7.85;;;1.98;;
30301;SDS011;17111;52.130;5.028;2023-08-21T08:17:02;7.32;;;1.80;;
30301;SDS011;17111;52.130;5.028;2023-08-21T08:19:29;6.30;;;1.52;;
30301;SDS011;17111;52.130;5.028;2023-08-21T08:21:56;6.18;;;1.70;;
30301;SDS011;17111;52.130;5.028;2023-08-21T08:24:22;6.15;;;1.73;;
30301;SDS011;17111;52.130;5.028;2023-08-21T08:26:49;4.45;;;1.38;;
30301;SDS011;17111;52.130;5.028;2023-08-21T08:29:16;7.72;;;1.70;;
30301;SDS011;17111;52.130;5.028;2023-08-21T08:31:42;4.78;;;1.25;;
30301;SDS011;17111;52.130;5.028;2023-08-21T08:34:09;5.50;;;1.38;;
30301;SDS011;17111;52.130;5.028;2023-08-21T08:36:36;6.75;;;1.40;;
30301;SDS011;17111;52.130;5.028;2023-08-21T08:39:02;7.57;;;1.95;;
30301;SDS011;17111;52.130;5.028;2023-08-21T08:41:51;4.82;;;2.17;;
30301;SDS011;17111;52.130;5.028;2023-08-21T08:44:27;4.70;;;1.48;;
30301;SDS011;17111;52.130;5.028;2023-08-21T08:46:55;4.05;;;1.15;;
30301;SDS011;17111;52.130;5.028;2023-08-21T08:49:22;6.65;;;1.67;;
30301;SDS011;17111;52.130;5.028;2023-08-21T08:51:49;7.60;;;1.58;;
30301;SDS011;17111;52.130;5.028;2023-08-21T08:54:17;6.80;;;1.65;;
30301;SDS011;17111;52.130;5.028;2023-08-21T08:56:46;3.65;;;1.35;;
30301;SDS011;17111;52.130;5.028;2023-08-21T08:59:15;3.90;;;1.30;;
30301;SDS011;17111;52.130;5.028;2023-08-21T09:01:42;6.50;;;1.73;;
30301;SDS011;17111;52.130;5.028;2023-08-21T09:04:08;5.10;;;1.80;;
30301;SDS011;17111;52.130;5.028;2023-08-21T09:06:36;5.45;;;1.70;;
30301;SDS011;17111;52.130;5.028;2023-08-21T09:09:03;4.78;;;1.50;;
30301;SDS011;17111;52.130;5.028;2023-08-21T09:11:31;6.40;;;1.95;;
30301;SDS011;17111;52.130;5.028;2023-08-21T09:13:59;6.75;;;1.38;;
30301;SDS011;17111;52.130;5.028;2023-08-21T09:16:26;3.88;;;1.58;;
30301;SDS011;17111;52.130;5.028;2023-08-21T09:18:54;4.25;;;1.30;;
30301;SDS011;17111;52.130;5.028;2023-08-21T09:21:25;5.35;;;1.50;;
30301;SDS011;17111;52.130;5.028;2023-08-21T09:23:57;5.75;;;1.45;;
30301;SDS011;17111;52.130;5.028;2023-08-21T09:26:25;6.13;;;1.30;;
30301;SDS011;17111;52.130;5.028;2023-08-21T09:28:53;5.10;;;1.60;;
30301;SDS011;17111;52.130;5.028;2023-08-21T09:31:23;5.68;;;1.42;;
30301;SDS011;17111;52.130;5.028;2023-08-21T09:33:59;5.47;;;1.50;;
30301;SDS011;17111;52.130;5.028;2023-08-21T09:36:27;6.22;;;1.75;;
30301;SDS011;17111;52.130;5.028;2023-08-21T09:38:54;5.35;;;1.80;;
30301;SDS011;17111;52.130;5.028;2023-08-21T09:41:22;6.75;;;1.52;;
30301;SDS011;17111;52.130;5.028;2023-08-21T09:43:49;8.25;;;2.05;;
30301;SDS011;17111;52.130;5.028;2023-08-21T09:46:17;5.95;;;1.38;;
30301;SDS011;17111;52.130;5.028;2023-08-21T09:48:52;4.72;;;1.38;;
30301;SDS011;17111;52.130;5.028;2023-08-21T09:51:20;7.45;;;1.73;;
30301;SDS011;17111;52.130;5.028;2023-08-21T09:53:50;4.35;;;1.40;;
30301;SDS011;17111;52.130;5.028;2023-08-21T09:56:17;6.15;;;1.67;;
30301;SDS011;17111;52.130;5.028;2023-08-21T09:58:48;9.48;;;2.03;;
30301;SDS011;17111;52.130;5.028;2023-08-21T10:01:17;5.57;;;1.50;;
30301;SDS011;17111;52.130;5.028;2023-08-21T10:03:46;4.15;;;1.10;;
30301;SDS011;17111;52.130;5.028;2023-08-21T10:06:17;5.53;;;1.30;;
30301;SDS011;17111;52.130;5.028;2023-08-21T10:08:48;4.65;;;1.42;;
30301;SDS011;17111;52.130;5.028;2023-08-21T10:11:20;4.85;;;1.40;;
30301;SDS011;17111;52.130;5.028;2023-08-21T10:13:48;5.07;;;1.10;;
30301;SDS011;17111;52.130;5.028;2023-08-21T10:16:19;4.18;;;1.20;;
30301;SDS011;17111;52.130;5.028;2023-08-21T10:18:48;5.07;;;1.05;;
30301;SDS011;17111;52.130;5.028;2023-08-21T10:21:15;4.28;;;1.08;;
30301;SDS011;17111;52.130;5.028;2023-08-21T10:23:46;6.78;;;1.08;;
30301;SDS011;17111;52.130;5.028;2023-08-21T10:26:14;5.18;;;1.33;;
30301;SDS011;17111;52.130;5.028;2023-08-21T10:28:48;3.15;;;1.10;;
30301;SDS011;17111;52.130;5.028;2023-08-21T10:31:32;9.98;;;1.95;;
30301;SDS011;17111;52.130;5.028;2023-08-21T10:34:05;13.85;;;2.92;;
30301;SDS011;17111;52.130;5.028;2023-08-21T10:39:23;11.55;;;2.47;;
30301;SDS011;17111;52.130;5.028;2023-08-21T10:41:57;12.65;;;2.83;;
30301;SDS011;17111;52.130;5.028;2023-08-21T10:47:18;4.45;;;1.73;;
30301;SDS011;17111;52.130;5.028;2023-08-21T10:49:55;13.38;;;1.88;;
30301;SDS011;17111;52.130;5.028;2023-08-21T10:54:59;5.32;;;1.90;;
30301;SDS011;17111;52.130;5.028;2023-08-21T10:57:27;7.22;;;1.20;;
30301;SDS011;17111;52.130;5.028;2023-08-21T11:00:05;5.63;;;1.50;;
30301;SDS011;17111;52.130;5.028;2023-08-21T11:02:38;6.35;;;1.60;;
30301;SDS011;17111;52.130;5.028;2023-08-21T11:05:06;7.28;;;1.40;;
30301;SDS011;17111;52.130;5.028;2023-08-21T11:07:41;4.03;;;1.40;;
30301;SDS011;17111;52.130;5.028;2023-08-21T11:10:12;4.07;;;1.30;;
30301;SDS011;17111;52.130;5.028;2023-08-21T11:12:55;4.78;;;1.00;;
30301;SDS011;17111;52.130;5.028;2023-08-21T11:15:24;4.82;;;1.30;;
30301;SDS011;17111;52.130;5.028;2023-08-21T11:17:55;5.47;;;1.23;;
30301;SDS011;17111;52.130;5.028;2023-08-21T11:20:27;3.67;;;0.98;;
30301;SDS011;17111;52.130;5.028;2023-08-21T11:23:01;6.05;;;1.63;;
30301;SDS011;17111;52.130;5.028;2023-08-21T11:25:33;2.45;;;1.00;;
30301;SDS011;17111;52.130;5.028;2023-08-21T11:28:01;4.60;;;1.25;;
30301;SDS011;17111;52.130;5.028;2023-08-21T11:30:30;3.08;;;0.88;;
30301;SDS011;17111;52.130;5.028;2023-08-21T11:33:08;4.57;;;1.48;;
30301;SDS011;17111;52.130;5.028;2023-08-21T11:35:36;4.57;;;0.90;;
30301;SDS011;17111;52.130;5.028;2023-08-21T11:38:04;3.80;;;1.00;;
30301;SDS011;17111;52.130;5.028;2023-08-21T11:40:35;7.05;;;1.40;;
30301;SDS011;17111;52.130;5.028;2023-08-21T11:43:02;4.25;;;1.27;;
30301;SDS011;17111;52.130;5.028;2023-08-21T11:45:31;4.82;;;1.08;;
30301;SDS011;17111;52.130;5.028;2023-08-21T11:48:10;3.38;;;1.00;;
30301;SDS011;17111;52.130;5.028;2023-08-21T11:50:37;2.63;;;1.02;;
30301;SDS011;17111;52.130;5.028;2023-08-21T11:53:05;4.70;;;1.30;;
30301;SDS011;17111;52.130;5.028;2023-08-21T11:55:32;5.88;;;1.40;;
30301;SDS011;17111;52.130;5.028;2023-08-21T11:58:01;4.80;;;1.25;;
30301;SDS011;17111;52.130;5.028;2023-08-21T12:00:28;4.47;;;1.23;;
30301;SDS011;17111;52.130;5.028;2023-08-21T12:02:56;3.22;;;1.05;;
30301;SDS011;17111;52.130;5.028;2023-08-21T12:05:25;8.00;;;1.42;;
30301;SDS011;17111;52.130;5.028;2023-08-21T12:07:53;7.47;;;1.13;;
30301;SDS011;17111;52.130;5.028;2023-08-21T12:10:27;5.00;;;1.00;;
30301;SDS011;17111;52.130;5.028;2023-08-21T12:12:55;8.40;;;1.42;;
30301;SDS011;17111;52.130;5.028;2023-08-21T12:15:22;6.00;;;1.13;;
30301;SDS011;17111;52.130;5.028;2023-08-21T12:17:49;3.05;;;0.90;;
30301;SDS011;17111;52.130;5.028;2023-08-21T12:20:16;2.45;;;0.70;;
30301;SDS011;17111;52.130;5.028;2023-08-21T12:22:43;3.30;;;0.80;;
30301;SDS011;17111;52.130;5.028;2023-08-21T12:25:09;4.60;;;1.15;;
30301;SDS011;17111;52.130;5.028;2023-08-21T12:27:36;2.42;;;0.80;;
30301;SDS011;17111;52.130;5.028;2023-08-21T12:30:04;1.75;;;0.82;;
30301;SDS011;17111;52.130;5.028;2023-08-21T12:32:32;2.28;;;0.63;;
30301;SDS011;17111;52.130;5.028;2023-08-21T12:34:58;4.68;;;1.40;;
30301;SDS011;17111;52.130;5.028;2023-08-21T12:37:25;4.13;;;0.88;;
30301;SDS011;17111;52.130;5.028;2023-08-21T12:39:53;4.18;;;0.75;;
30301;SDS011;17111;52.130;5.028;2023-08-21T12:42:20;5.15;;;1.10;;
30301;SDS011;17111;52.130;5.028;2023-08-21T12:44:46;5.00;;;0.95;;
30301;SDS011;17111;52.130;5.028;2023-08-21T12:47:13;5.50;;;1.00;;
30301;SDS011;17111;52.130;5.028;2023-08-21T12:49:39;4.03;;;1.10;;
30301;SDS011;17111;52.130;5.028;2023-08-21T12:52:06;4.10;;;0.90;;
30301;SDS011;17111;52.130;5.028;2023-08-21T12:54:36;4.43;;;0.98;;
30301;SDS011;17111;52.130;5.028;2023-08-21T12:57:03;3.58;;;1.02;;
30301;SDS011;17111;52.130;5.028;2023-08-21T12:59:29;3.65;;;0.88;;
30301;SDS011;17111;52.130;5.028;2023-08-21T13:01:58;3.58;;;1.10;;
30301;SDS011;17111;52.130;5.028;2023-08-21T13:04:26;3.65;;;0.82;;
30301;SDS011;17111;52.130;5.028;2023-08-21T13:06:53;5.70;;;0.90;;
30301;SDS011;17111;52.130;5.028;2023-08-21T13:09:19;5.28;;;1.38;;
30301;SDS011;17111;52.130;5.028;2023-08-21T13:11:46;4.63;;;1.00;;
30301;SDS011;17111;52.130;5.028;2023-08-21T13:14:12;4.05;;;0.98;;
30301;SDS011;17111;52.130;5.028;2023-08-21T13:16:39;2.50;;;0.70;;
30301;SDS011;17111;52.130;5.028;2023-08-21T13:19:05;5.03;;;1.10;;
30301;SDS011;17111;52.130;5.028;2023-08-21T13:21:32;3.80;;;1.00;;
30301;SDS011;17111;52.130;5.028;2023-08-21T13:23:59;3.58;;;0.70;;
30301;SDS011;17111;52.130;5.028;2023-08-21T13:26:28;5.43;;;1.08;;
30301;SDS011;17111;52.130;5.028;2023-08-21T13:28:57;3.90;;;1.02;;
30301;SDS011;17111;52.130;5.028;2023-08-21T13:31:24;3.70;;;0.80;;
30301;SDS011;17111;52.130;5.028;2023-08-21T13:33:50;7.70;;;1.27;;
30301;SDS011;17111;52.130;5.028;2023-08-21T13:36:17;2.78;;;0.88;;
30301;SDS011;17111;52.130;5.028;2023-08-21T13:38:45;3.80;;;0.80;;
30301;SDS011;17111;52.130;5.028;2023-08-21T13:41:11;3.08;;;0.75;;
30301;SDS011;17111;52.130;5.028;2023-08-21T13:43:38;3.42;;;0.80;;
30301;SDS011;17111;52.130;5.028;2023-08-21T13:46:06;1.88;;;0.60;;
30301;SDS011;17111;52.130;5.028;2023-08-21T13:48:33;5.32;;;0.93;;
30301;SDS011;17111;52.130;5.028;2023-08-21T13:51:00;3.03;;;0.73;;
30301;SDS011;17111;52.130;5.028;2023-08-21T13:53:27;4.45;;;1.25;;
30301;SDS011;17111;52.130;5.028;2023-08-21T13:55:53;5.03;;;0.93;;
30301;SDS011;17111;52.130;5.028;2023-08-21T13:58:20;5.90;;;1.30;;
30301;SDS011;17111;52.130;5.028;2023-08-21T14:00:47;5.32;;;1.00;;
30301;SDS011;17111;52.130;5.028;2023-08-21T14:03:14;2.22;;;1.02;;
30301;SDS011;17111;52.130;5.028;2023-08-21T14:05:40;2.20;;;0.88;;
30301;SDS011;17111;52.130;5.028;2023-08-21T14:08:07;5.20;;;0.98;;
30301;SDS011;17111;52.130;5.028;2023-08-21T14:10:34;1.48;;;0.65;;
30301;SDS011;17111;52.130;5.028;2023-08-21T14:13:01;1.50;;;0.50;;
30301;SDS011;17111;52.130;5.028;2023-08-21T14:15:29;3.42;;;1.20;;
30301;SDS011;17111;52.130;5.028;2023-08-21T14:17:56;2.67;;;0.70;;
30301;SDS011;17111;52.130;5.028;2023-08-21T14:20:23;4.97;;;0.80;;
30301;SDS011;17111;52.130;5.028;2023-08-21T14:22:49;2.83;;;0.93;;
30301;SDS011;17111;52.130;5.028;2023-08-21T14:25:16;3.80;;;0.98;;
30301;SDS011;17111;52.130;5.028;2023-08-21T14:27:43;1.90;;;0.63;;
30301;SDS011;17111;52.130;5.028;2023-08-21T14:30:10;6.18;;;1.15;;
30301;SDS011;17111;52.130;5.028;2023-08-21T14:32:37;4.30;;;0.88;;
30301;SDS011;17111;52.130;5.028;2023-08-21T14:35:04;4.25;;;0.75;;
30301;SDS011;17111;52.130;5.028;2023-08-21T14:37:34;5.63;;;1.15;;
30301;SDS011;17111;52.130;5.028;2023-08-21T14:40:03;5.95;;;0.95;;
30301;SDS011;17111;52.130;5.028;2023-08-21T14:42:34;2.70;;;0.85;;
30301;SDS011;17111;52.130;5.028;2023-08-21T14:45:02;5.45;;;1.00;;
30301;SDS011;17111;52.130;5.028;2023-08-21T14:47:29;2.05;;;0.82;;
30301;SDS011;17111;52.130;5.028;2023-08-21T14:49:56;5.45;;;1.05;;
30301;SDS011;17111;52.130;5.028;2023-08-21T14:52:23;5.72;;;1.60;;
30301;SDS011;17111;52.130;5.028;2023-08-21T14:54:50;3.15;;;0.80;;
30301;SDS011;17111;52.130;5.028;2023-08-21T14:57:17;3.35;;;1.05;;
30301;SDS011;17111;52.130;5.028;2023-08-21T14:59:44;3.70;;;1.10;;
30301;SDS011;17111;52.130;5.028;2023-08-21T15:02:10;4.40;;;1.10;;